sensor_id;sensor_type;location;lat;lon;timestamp;P1;durP1;ratioP1;P2;durP2;ratioP2
52035;SDS011;38046;49.448;32.074;2023-04-24T00:00:47;5.30;;;4.30;;
52035;SDS011;38046;49.448;32.074;2023-04-24T00:03:12;5.00;;;4.18;;
52035;SDS011;38046;49.448;32.074;2023-04-24T00:05:38;5.65;;;4.40;;
52035;SDS011;38046;49.448;32.074;2023-04-24T00:08:05;5.63;;;4.30;;
52035;SDS011;38046;49.448;32.074;2023-04-24T00:10:31;5.75;;;3.72;;
52035;SDS011;38046;49.448;32.074;2023-04-24T00:12:57;4.72;;;3.92;;
52035;SDS011;38046;49.448;32.074;2023-04-24T00:15:22;5.35;;;4.05;;
52035;SDS011;38046;49.448;32.074;2023-04-24T00:17:48;5.47;;;4.10;;
52035;SDS011;38046;49.448;32.074;2023-04-24T00:20:14;5.57;;;4.00;;
52035;SDS011;38046;49.448;32.074;2023-04-24T00:22:40;4.38;;;3.97;;
52035;SDS011;38046;49.448;32.074;2023-04-24T00:25:06;4.43;;;3.75;;
52035;SDS011;38046;49.448;32.074;2023-04-24T00:27:32;6.40;;;4.13;;
52035;SDS011;38046;49.448;32.074;2023-04-24T00:29:58;5.90;;;4.22;;
52035;SDS011;38046;49.448;32.074;2023-04-24T00:32:23;6.60;;;4.18;;
52035;SDS011;38046;49.448;32.074;2023-04-24T00:34:49;6.22;;;4.05;;
52035;SDS011;38046;49.448;32.074;2023-04-24T00:37:14;5.07;;;4.15;;
52035;SDS011;38046;49.448;32.074;2023-04-24T00:39:40;4.47;;;3.75;;
52035;SDS011;38046;49.448;32.074;2023-04-24T00:42:06;4.78;;;3.72;;
52035;SDS011;38046;49.448;32.074;2023-04-24T00:44:34;4.57;;;3.88;;
52035;SDS011;38046;49.448;32.074;2023-04-24T00:47:00;4.65;;;3.70;;
52035;SDS011;38046;49.448;32.074;2023-04-24T00:49:26;4.60;;;3.38;;
52035;SDS011;38046;49.448;32.074;2023-04-24T00:51:52;5.40;;;3.90;;
52035;SDS011;38046;49.448;32.074;2023-04-24T00:54:19;5.20;;;4.05;;
52035;SDS011;38046;49.448;32.074;2023-04-24T00:56:45;4.93;;;3.75;;
52035;SDS011;38046;49.448;32.074;2023-04-24T00:59:12;5.80;;;3.92;;
52035;SDS011;38046;49.448;32.074;2023-04-24T01:01:38;5.50;;;4.50;;
52035;SDS011;38046;49.448;32.074;2023-04-24T01:04:07;4.97;;;4.18;;
52035;SDS011;38046;49.448;32.074;2023-04-24T01:06:33;4.80;;;4.15;;
52035;SDS011;38046;49.448;32.074;2023-04-24T01:08:59;7.00;;;4.45;;
52035;SDS011;38046;49.448;32.074;2023-04-24T01:11:25;6.30;;;4.85;;
52035;SDS011;38046;49.448;32.074;2023-04-24T01:13:51;5.63;;;4.28;;
52035;SDS011;38046;49.448;32.074;2023-04-24T01:16:18;7.32;;;4.53;;
52035;SDS011;38046;49.448;32.074;2023-04-24T01:18:45;5.82;;;5.00;;
52035;SDS011;38046;49.448;32.074;2023-04-24T01:21:13;5.57;;;4.30;;
52035;SDS011;38046;49.448;32.074;2023-04-24T01:23:41;5.97;;;4.88;;
52035;SDS011;38046;49.448;32.074;2023-04-24T01:26:08;7.53;;;4.85;;
52035;SDS011;38046;49.448;32.074;2023-04-24T01:28:33;7.28;;;4.90;;
52035;SDS011;38046;49.448;32.074;2023-04-24T01:30:59;6.40;;;4.75;;
52035;SDS011;38046;49.448;32.074;2023-04-24T01:33:25;6.50;;;4.80;;
52035;SDS011;38046;49.448;32.074;2023-04-24T01:35:51;6.93;;;5.20;;
52035;SDS011;38046;49.448;32.074;2023-04-24T01:38:17;6.70;;;5.63;;
52035;SDS011;38046;49.448;32.074;2023-04-24T01:40:42;7.63;;;5.78;;
52035;SDS011;38046;49.448;32.074;2023-04-24T01:43:08;7.82;;;5.70;;
52035;SDS011;38046;49.448;32.074;2023-04-24T01:45:34;8.25;;;5.70;;
52035;SDS011;38046;49.448;32.074;2023-04-24T01:48:00;6.47;;;5.00;;
52035;SDS011;38046;49.448;32.074;2023-04-24T01:50:25;6.82;;;5.47;;
52035;SDS011;38046;49.448;32.074;2023-04-24T01:52:51;8.63;;;5.75;;
52035;SDS011;38046;49.448;32.074;2023-04-24T01:55:17;7.32;;;5.18;;
52035;SDS011;38046;49.448;32.074;2023-04-24T01:57:43;7.53;;;5.50;;
52035;SDS011;38046;49.448;32.074;2023-04-24T02:00:10;7.80;;;5.75;;
52035;SDS011;38046;49.448;32.074;2023-04-24T02:02:36;6.72;;;6.03;;
52035;SDS011;38046;49.448;32.074;2023-04-24T02:05:05;9.15;;;6.32;;
52035;SDS011;38046;49.448;32.074;2023-04-24T02:07:31;7.30;;;5.95;;
52035;SDS011;38046;49.448;32.074;2023-04-24T02:09:57;9.40;;;6.78;;
52035;SDS011;38046;49.448;32.074;2023-04-24T02:12:23;9.80;;;6.65;;
52035;SDS011;38046;49.448;32.074;2023-04-24T02:14:49;10.02;;;7.22;;
52035;SDS011;38046;49.448;32.074;2023-04-24T02:17:15;10.45;;;7.63;;
52035;SDS011;38046;49.448;32.074;2023-04-24T02:19:41;9.77;;;7.80;;
52035;SDS011;38046;49.448;32.074;2023-04-24T02:22:06;9.70;;;7.40;;
52035;SDS011;38046;49.448;32.074;2023-04-24T02:24:32;11.25;;;7.72;;
52035;SDS011;38046;49.448;32.074;2023-04-24T02:26:58;8.90;;;7.05;;
52035;SDS011;38046;49.448;32.074;2023-04-24T02:29:23;10.45;;;7.47;;
52035;SDS011;38046;49.448;32.074;2023-04-24T02:31:49;7.95;;;6.35;;
52035;SDS011;38046;49.448;32.074;2023-04-24T02:34:15;9.05;;;6.43;;
52035;SDS011;38046;49.448;32.074;2023-04-24T02:36:41;9.75;;;7.10;;
52035;SDS011;38046;49.448;32.074;2023-04-24T02:39:06;7.78;;;6.82;;
52035;SDS011;38046;49.448;32.074;2023-04-24T02:41:33;9.80;;;7.55;;
52035;SDS011;38046;49.448;32.074;2023-04-24T02:43:58;11.95;;;7.45;;
52035;SDS011;38046;49.448;32.074;2023-04-24T02:46:25;9.02;;;7.20;;
52035;SDS011;38046;49.448;32.074;2023-04-24T02:48:51;9.40;;;7.28;;
52035;SDS011;38046;49.448;32.074;2023-04-24T02:51:17;9.82;;;7.32;;
52035;SDS011;38046;49.448;32.074;2023-04-24T02:53:42;10.98;;;7.78;;
52035;SDS011;38046;49.448;32.074;2023-04-24T02:56:08;12.07;;;7.85;;
52035;SDS011;38046;49.448;32.074;2023-04-24T02:58:37;8.30;;;6.93;;
52035;SDS011;38046;49.448;32.074;2023-04-24T03:01:02;10.50;;;6.65;;
52035;SDS011;38046;49.448;32.074;2023-04-24T03:03:28;7.93;;;6.53;;
52035;SDS011;38046;49.448;32.074;2023-04-24T03:05:54;9.65;;;7.38;;
52035;SDS011;38046;49.448;32.074;2023-04-24T03:08:22;9.20;;;6.90;;
52035;SDS011;38046;49.448;32.074;2023-04-24T03:10:47;10.95;;;7.93;;
52035;SDS011;38046;49.448;32.074;2023-04-24T03:13:13;10.43;;;6.80;;
52035;SDS011;38046;49.448;32.074;2023-04-24T03:15:40;10.15;;;7.57;;
52035;SDS011;38046;49.448;32.074;2023-04-24T03:18:05;9.85;;;7.40;;
52035;SDS011;38046;49.448;32.074;2023-04-24T03:20:31;10.32;;;7.70;;
52035;SDS011;38046;49.448;32.074;2023-04-24T03:22:56;13.73;;;9.52;;
52035;SDS011;38046;49.448;32.074;2023-04-24T03:25:22;13.10;;;9.38;;
52035;SDS011;38046;49.448;32.074;2023-04-24T03:27:48;12.10;;;9.00;;
52035;SDS011;38046;49.448;32.074;2023-04-24T03:30:13;11.85;;;9.15;;
52035;SDS011;38046;49.448;32.074;2023-04-24T03:32:39;10.18;;;8.15;;
52035;SDS011;38046;49.448;32.074;2023-04-24T03:35:06;9.20;;;6.40;;
52035;SDS011;38046;49.448;32.074;2023-04-24T03:37:33;8.90;;;7.18;;
52035;SDS011;38046;49.448;32.074;2023-04-24T03:39:58;7.63;;;5.78;;
52035;SDS011;38046;49.448;32.074;2023-04-24T03:42:24;8.93;;;7.20;;
52035;SDS011;38046;49.448;32.074;2023-04-24T03:44:50;8.85;;;7.15;;
52035;SDS011;38046;49.448;32.074;2023-04-24T03:47:15;7.60;;;6.25;;
52035;SDS011;38046;49.448;32.074;2023-04-24T03:49:41;8.45;;;6.22;;
52035;SDS011;38046;49.448;32.074;2023-04-24T03:52:07;10.77;;;6.90;;
52035;SDS011;38046;49.448;32.074;2023-04-24T03:54:32;9.95;;;6.82;;
52035;SDS011;38046;49.448;32.074;2023-04-24T03:56:58;8.18;;;6.38;;
52035;SDS011;38046;49.448;32.074;2023-04-24T03:59:24;8.25;;;6.55;;
52035;SDS011;38046;49.448;32.074;2023-04-24T04:01:49;8.80;;;6.30;;
52035;SDS011;38046;49.448;32.074;2023-04-24T04:04:15;10.10;;;6.72;;
52035;SDS011;38046;49.448;32.074;2023-04-24T04:06:41;10.60;;;7.45;;
52035;SDS011;38046;49.448;32.074;2023-04-24T04:09:07;9.57;;;7.03;;
52035;SDS011;38046;49.448;32.074;2023-04-24T04:11:33;9.90;;;7.10;;
52035;SDS011;38046;49.448;32.074;2023-04-24T04:14:00;9.85;;;7.22;;
52035;SDS011;38046;49.448;32.074;2023-04-24T04:16:26;14.20;;;7.93;;
52035;SDS011;38046;49.448;32.074;2023-04-24T04:18:51;9.63;;;6.53;;
52035;SDS011;38046;49.448;32.074;2023-04-24T04:21:17;8.45;;;6.70;;
52035;SDS011;38046;49.448;32.074;2023-04-24T04:23:42;8.27;;;5.93;;
52035;SDS011;38046;49.448;32.074;2023-04-24T04:26:08;7.97;;;6.18;;
52035;SDS011;38046;49.448;32.074;2023-04-24T04:28:34;7.95;;;5.97;;
52035;SDS011;38046;49.448;32.074;2023-04-24T04:31:00;7.03;;;5.88;;
52035;SDS011;38046;49.448;32.074;2023-04-24T04:33:25;6.93;;;5.57;;
52035;SDS011;38046;49.448;32.074;2023-04-24T04:35:51;6.55;;;5.15;;
52035;SDS011;38046;49.448;32.074;2023-04-24T04:38:18;6.68;;;5.05;;
52035;SDS011;38046;49.448;32.074;2023-04-24T04:40:44;7.35;;;5.35;;
52035;SDS011;38046;49.448;32.074;2023-04-24T04:43:10;7.30;;;4.72;;
52035;SDS011;38046;49.448;32.074;2023-04-24T04:45:38;7.68;;;4.82;;
52035;SDS011;38046;49.448;32.074;2023-04-24T04:48:05;6.93;;;4.57;;
52035;SDS011;38046;49.448;32.074;2023-04-24T04:50:33;6.47;;;4.72;;
52035;SDS011;38046;49.448;32.074;2023-04-24T04:52:58;7.20;;;4.95;;
52035;SDS011;38046;49.448;32.074;2023-04-24T04:55:24;7.85;;;4.78;;
52035;SDS011;38046;49.448;32.074;2023-04-24T04:57:50;6.57;;;4.88;;
52035;SDS011;38046;49.448;32.074;2023-04-24T05:00:16;5.97;;;4.65;;
52035;SDS011;38046;49.448;32.074;2023-04-24T05:02:42;8.23;;;5.18;;
52035;SDS011;38046;49.448;32.074;2023-04-24T05:05:08;5.70;;;4.70;;
52035;SDS011;38046;49.448;32.074;2023-04-24T05:07:34;7.32;;;4.57;;
52035;SDS011;38046;49.448;32.074;2023-04-24T05:10:00;6.78;;;5.18;;
52035;SDS011;38046;49.448;32.074;2023-04-24T05:12:25;6.63;;;4.57;;
52035;SDS011;38046;49.448;32.074;2023-04-24T05:14:51;9.02;;;4.90;;
52035;SDS011;38046;49.448;32.074;2023-04-24T05:17:17;7.20;;;4.85;;
52035;SDS011;38046;49.448;32.074;2023-04-24T05:19:43;10.02;;;5.10;;
52035;SDS011;38046;49.448;32.074;2023-04-24T05:22:09;7.90;;;5.45;;
52035;SDS011;38046;49.448;32.074;2023-04-24T05:24:35;7.95;;;5.53;;
52035;SDS011;38046;49.448;32.074;2023-04-24T05:27:04;7.97;;;5.43;;
52035;SDS011;38046;49.448;32.074;2023-04-24T05:29:31;7.65;;;5.65;;
52035;SDS011;38046;49.448;32.074;2023-04-24T05:31:58;8.70;;;5.45;;
52035;SDS011;38046;49.448;32.074;2023-04-24T05:34:23;6.05;;;4.38;;
52035;SDS011;38046;49.448;32.074;2023-04-24T05:36:49;5.18;;;4.03;;
52035;SDS011;38046;49.448;32.074;2023-04-24T05:39:16;4.07;;;3.67;;
52035;SDS011;38046;49.448;32.074;2023-04-24T05:41:41;5.93;;;4.20;;
52035;SDS011;38046;49.448;32.074;2023-04-24T05:44:07;7.25;;;4.13;;
52035;SDS011;38046;49.448;32.074;2023-04-24T05:46:33;7.07;;;4.75;;
52035;SDS011;38046;49.448;32.074;2023-04-24T05:48:58;7.05;;;4.78;;
52035;SDS011;38046;49.448;32.074;2023-04-24T05:51:24;9.00;;;5.35;;
52035;SDS011;38046;49.448;32.074;2023-04-24T05:53:50;6.68;;;4.90;;
52035;SDS011;38046;49.448;32.074;2023-04-24T05:56:16;6.57;;;4.70;;
52035;SDS011;38046;49.448;32.074;2023-04-24T05:58:42;7.38;;;5.30;;
52035;SDS011;38046;49.448;32.074;2023-04-24T06:01:08;6.60;;;5.10;;
52035;SDS011;38046;49.448;32.074;2023-04-24T06:03:34;5.65;;;4.57;;
52035;SDS011;38046;49.448;32.074;2023-04-24T06:06:00;7.30;;;4.70;;
52035;SDS011;38046;49.448;32.074;2023-04-24T06:08:25;7.15;;;3.95;;
52035;SDS011;38046;49.448;32.074;2023-04-24T06:10:51;6.32;;;4.28;;
52035;SDS011;38046;49.448;32.074;2023-04-24T06:13:17;5.00;;;3.60;;
52035;SDS011;38046;49.448;32.074;2023-04-24T06:15:43;5.32;;;3.92;;
52035;SDS011;38046;49.448;32.074;2023-04-24T06:18:08;4.10;;;3.70;;
52035;SDS011;38046;49.448;32.074;2023-04-24T06:20:37;5.50;;;3.60;;
52035;SDS011;38046;49.448;32.074;2023-04-24T06:23:03;5.65;;;3.70;;
52035;SDS011;38046;49.448;32.074;2023-04-24T06:25:29;4.90;;;4.00;;
52035;SDS011;38046;49.448;32.074;2023-04-24T06:27:55;6.68;;;3.92;;
52035;SDS011;38046;49.448;32.074;2023-04-24T06:30:21;5.82;;;4.50;;
52035;SDS011;38046;49.448;32.074;2023-04-24T06:32:47;5.55;;;4.03;;
52035;SDS011;38046;49.448;32.074;2023-04-24T06:35:13;6.88;;;4.30;;
52035;SDS011;38046;49.448;32.074;2023-04-24T06:37:39;5.10;;;4.10;;
52035;SDS011;38046;49.448;32.074;2023-04-24T06:40:06;8.05;;;4.70;;
52035;SDS011;38046;49.448;32.074;2023-04-24T06:42:32;6.30;;;4.40;;
52035;SDS011;38046;49.448;32.074;2023-04-24T06:44:58;6.47;;;4.47;;
52035;SDS011;38046;49.448;32.074;2023-04-24T06:47:24;6.18;;;4.63;;
52035;SDS011;38046;49.448;32.074;2023-04-24T06:49:49;5.60;;;4.30;;
52035;SDS011;38046;49.448;32.074;2023-04-24T06:52:17;5.70;;;4.38;;
52035;SDS011;38046;49.448;32.074;2023-04-24T06:54:43;6.18;;;4.57;;
52035;SDS011;38046;49.448;32.074;2023-04-24T06:57:09;5.75;;;4.20;;
52035;SDS011;38046;49.448;32.074;2023-04-24T06:59:35;5.97;;;3.92;;
52035;SDS011;38046;49.448;32.074;2023-04-24T07:02:01;5.28;;;4.35;;
52035;SDS011;38046;49.448;32.074;2023-04-24T07:04:27;6.43;;;4.15;;
52035;SDS011;38046;49.448;32.074;2023-04-24T07:06:53;5.95;;;4.10;;
52035;SDS011;38046;49.448;32.074;2023-04-24T07:09:20;6.88;;;4.50;;
52035;SDS011;38046;49.448;32.074;2023-04-24T07:11:47;5.60;;;3.70;;
52035;SDS011;38046;49.448;32.074;2023-04-24T07:14:13;5.60;;;3.83;;
52035;SDS011;38046;49.448;32.074;2023-04-24T07:16:39;4.80;;;3.70;;
52035;SDS011;38046;49.448;32.074;2023-04-24T07:19:04;4.03;;;3.63;;
52035;SDS011;38046;49.448;32.074;2023-04-24T07:21:30;5.47;;;3.97;;
52035;SDS011;38046;49.448;32.074;2023-04-24T07:23:57;3.92;;;3.53;;
52035;SDS011;38046;49.448;32.074;2023-04-24T07:26:26;4.60;;;3.60;;
52035;SDS011;38046;49.448;32.074;2023-04-24T07:28:53;5.00;;;3.67;;
52035;SDS011;38046;49.448;32.074;2023-04-24T07:31:19;4.20;;;3.40;;
52035;SDS011;38046;49.448;32.074;2023-04-24T07:33:45;4.60;;;3.35;;
52035;SDS011;38046;49.448;32.074;2023-04-24T07:36:11;5.15;;;3.65;;
52035;SDS011;38046;49.448;32.074;2023-04-24T07:38:41;4.43;;;3.47;;
52035;SDS011;38046;49.448;32.074;2023-04-24T07:41:07;4.93;;;3.28;;
52035;SDS011;38046;49.448;32.074;2023-04-24T07:43:33;5.20;;;3.40;;
52035;SDS011;38046;49.448;32.074;2023-04-24T07:45:59;5.03;;;3.40;;
52035;SDS011;38046;49.448;32.074;2023-04-24T07:48:25;3.97;;;3.25;;
52035;SDS011;38046;49.448;32.074;2023-04-24T07:50:51;4.22;;;3.30;;
52035;SDS011;38046;49.448;32.074;2023-04-24T07:53:17;4.10;;;3.47;;
52035;SDS011;38046;49.448;32.074;2023-04-24T07:55:43;3.97;;;3.58;;
52035;SDS011;38046;49.448;32.074;2023-04-24T07:58:08;5.40;;;3.70;;
52035;SDS011;38046;49.448;32.074;2023-04-24T08:00:34;4.22;;;3.65;;
52035;SDS011;38046;49.448;32.074;2023-04-24T08:03:00;3.78;;;3.38;;
52035;SDS011;38046;49.448;32.074;2023-04-24T08:05:26;5.00;;;3.50;;
52035;SDS011;38046;49.448;32.074;2023-04-24T08:07:53;5.05;;;3.33;;
52035;SDS011;38046;49.448;32.074;2023-04-24T08:10:20;3.85;;;3.30;;
52035;SDS011;38046;49.448;32.074;2023-04-24T08:12:46;4.82;;;3.65;;
52035;SDS011;38046;49.448;32.074;2023-04-24T08:15:12;4.32;;;3.25;;
52035;SDS011;38046;49.448;32.074;2023-04-24T08:17:37;3.88;;;3.30;;
52035;SDS011;38046;49.448;32.074;2023-04-24T08:20:03;4.18;;;3.38;;
52035;SDS011;38046;49.448;32.074;2023-04-24T08:22:30;3.50;;;3.08;;
52035;SDS011;38046;49.448;32.074;2023-04-24T08:24:56;4.40;;;3.17;;
52035;SDS011;38046;49.448;32.074;2023-04-24T08:27:25;5.55;;;3.45;;
52035;SDS011;38046;49.448;32.074;2023-04-24T08:29:52;4.40;;;3.28;;
52035;SDS011;38046;49.448;32.074;2023-04-24T08:32:18;5.65;;;3.90;;
52035;SDS011;38046;49.448;32.074;2023-04-24T08:34:44;3.88;;;3.20;;
52035;SDS011;38046;49.448;32.074;2023-04-24T08:37:10;5.00;;;3.40;;
52035;SDS011;38046;49.448;32.074;2023-04-24T08:39:36;4.32;;;3.63;;
52035;SDS011;38046;49.448;32.074;2023-04-24T08:42:02;3.83;;;3.28;;
52035;SDS011;38046;49.448;32.074;2023-04-24T08:44:32;3.85;;;3.33;;
52035;SDS011;38046;49.448;32.074;2023-04-24T08:46:59;4.68;;;3.45;;
52035;SDS011;38046;49.448;32.074;2023-04-24T08:49:28;4.13;;;3.55;;
52035;SDS011;38046;49.448;32.074;2023-04-24T08:51:54;4.15;;;3.20;;
52035;SDS011;38046;49.448;32.074;2023-04-24T08:54:20;4.22;;;3.30;;
52035;SDS011;38046;49.448;32.074;2023-04-24T08:56:47;6.13;;;3.42;;
52035;SDS011;38046;49.448;32.074;2023-04-24T08:59:14;3.60;;;3.30;;
52035;SDS011;38046;49.448;32.074;2023-04-24T09:01:40;4.03;;;3.03;;
52035;SDS011;38046;49.448;32.074;2023-04-24T09:04:08;5.72;;;3.30;;
52035;SDS011;38046;49.448;32.074;2023-04-24T09:06:38;5.22;;;3.53;;
52035;SDS011;38046;49.448;32.074;2023-04-24T09:09:04;4.28;;;3.42;;
52035;SDS011;38046;49.448;32.074;2023-04-24T09:11:31;4.32;;;3.25;;
52035;SDS011;38046;49.448;32.074;2023-04-24T09:14:00;3.60;;;3.30;;
52035;SDS011;38046;49.448;32.074;2023-04-24T09:16:26;4.80;;;3.70;;
52035;SDS011;38046;49.448;32.074;2023-04-24T09:18:52;5.55;;;3.58;;
52035;SDS011;38046;49.448;32.074;2023-04-24T09:21:20;5.60;;;3.60;;
52035;SDS011;38046;49.448;32.074;2023-04-24T09:23:47;3.70;;;3.30;;
52035;SDS011;38046;49.448;32.074;2023-04-24T09:26:24;4.65;;;3.80;;
52035;SDS011;38046;49.448;32.074;2023-04-24T09:28:50;4.70;;;3.40;;
52035;SDS011;38046;49.448;32.074;2023-04-24T09:31:16;4.85;;;3.55;;
52035;SDS011;38046;49.448;32.074;2023-04-24T09:36:46;5.47;;;3.58;;
52035;SDS011;38046;49.448;32.074;2023-04-24T09:39:13;4.15;;;3.58;;
52035;SDS011;38046;49.448;32.074;2023-04-24T09:41:45;4.45;;;3.65;;
52035;SDS011;38046;49.448;32.074;2023-04-24T09:44:17;5.82;;;3.85;;
52035;SDS011;38046;49.448;32.074;2023-04-24T09:47:04;4.47;;;3.10;;
52035;SDS011;38046;49.448;32.074;2023-04-24T09:49:35;4.72;;;3.35;;
52035;SDS011;38046;49.448;32.074;2023-04-24T09:52:04;4.63;;;3.70;;
52035;SDS011;38046;49.448;32.074;2023-04-24T09:54:31;4.88;;;3.90;;
52035;SDS011;38046;49.448;32.074;2023-04-24T09:56:58;4.95;;;3.70;;
52035;SDS011;38046;49.448;32.074;2023-04-24T09:59:25;5.05;;;3.60;;
52035;SDS011;38046;49.448;32.074;2023-04-24T10:01:51;4.15;;;3.50;;
52035;SDS011;38046;49.448;32.074;2023-04-24T10:04:24;4.10;;;3.50;;
52035;SDS011;38046;49.448;32.074;2023-04-24T10:06:51;4.43;;;3.50;;
52035;SDS011;38046;49.448;32.074;2023-04-24T10:09:19;4.63;;;3.70;;
52035;SDS011;38046;49.448;32.074;2023-04-24T10:11:48;5.38;;;3.67;;
52035;SDS011;38046;49.448;32.074;2023-04-24T10:14:16;4.63;;;3.63;;
52035;SDS011;38046;49.448;32.074;2023-04-24T10:16:43;4.35;;;3.55;;
52035;SDS011;38046;49.448;32.074;2023-04-24T10:19:11;4.72;;;3.40;;
52035;SDS011;38046;49.448;32.074;2023-04-24T10:21:38;6.30;;;3.58;;
52035;SDS011;38046;49.448;32.074;2023-04-24T10:24:14;3.83;;;3.28;;
52035;SDS011;38046;49.448;32.074;2023-04-24T10:26:41;3.85;;;3.20;;
52035;SDS011;38046;49.448;32.074;2023-04-24T10:29:08;4.88;;;3.67;;
52035;SDS011;38046;49.448;32.074;2023-04-24T10:31:37;4.53;;;3.47;;
52035;SDS011;38046;49.448;32.074;2023-04-24T10:34:07;4.13;;;3.30;;
52035;SDS011;38046;49.448;32.074;2023-04-24T10:36:34;3.72;;;3.15;;
52035;SDS011;38046;49.448;32.074;2023-04-24T10:39:05;5.53;;;3.60;;
52035;SDS011;38046;49.448;32.074;2023-04-24T10:41:33;4.80;;;3.70;;
52035;SDS011;38046;49.448;32.074;2023-04-24T10:44:06;4.32;;;3.75;;
52035;SDS011;38046;49.448;32.074;2023-04-24T10:46:39;6.95;;;3.70;;
52035;SDS011;38046;49.448;32.074;2023-04-24T10:49:09;4.45;;;3.80;;
52035;SDS011;38046;49.448;32.074;2023-04-24T10:54:35;4.20;;;3.38;;
52035;SDS011;38046;49.448;32.074;2023-04-24T10:59:51;3.10;;;2.28;;
52035;SDS011;38046;49.448;32.074;2023-04-24T11:02:45;2.63;;;2.13;;
52035;SDS011;38046;49.448;32.074;2023-04-24T11:05:18;3.03;;;2.60;;
52035;SDS011;38046;49.448;32.074;2023-04-24T11:10:56;4.30;;;2.97;;
52035;SDS011;38046;49.448;32.074;2023-04-24T11:14:00;4.97;;;2.90;;
52035;SDS011;38046;49.448;32.074;2023-04-24T11:18:52;3.25;;;2.90;;
52035;SDS011;38046;49.448;32.074;2023-04-24T11:21:25;3.20;;;2.90;;
52035;SDS011;38046;49.448;32.074;2023-04-24T11:23:56;3.30;;;2.95;;
52035;SDS011;38046;49.448;32.074;2023-04-24T11:26:22;4.25;;;3.30;;
52035;SDS011;38046;49.448;32.074;2023-04-24T11:28:55;3.10;;;2.70;;
52035;SDS011;38046;49.448;32.074;2023-04-24T11:31:39;3.72;;;2.80;;
52035;SDS011;38046;49.448;32.074;2023-04-24T11:34:07;3.95;;;3.03;;
52035;SDS011;38046;49.448;32.074;2023-04-24T11:36:40;2.95;;;2.65;;
52035;SDS011;38046;49.448;32.074;2023-04-24T11:39:10;3.57;;;2.80;;
52035;SDS011;38046;49.448;32.074;2023-04-24T11:41:37;4.18;;;3.10;;
52035;SDS011;38046;49.448;32.074;2023-04-24T11:44:03;4.05;;;3.00;;
52035;SDS011;38046;49.448;32.074;2023-04-24T11:46:31;3.30;;;3.00;;
52035;SDS011;38046;49.448;32.074;2023-04-24T11:48:57;3.60;;;2.83;;
52035;SDS011;38046;49.448;32.074;2023-04-24T11:51:25;4.18;;;3.20;;
52035;SDS011;38046;49.448;32.074;2023-04-24T11:53:55;4.07;;;3.17;;
52035;SDS011;38046;49.448;32.074;2023-04-24T11:56:22;3.08;;;2.78;;
52035;SDS011;38046;49.448;32.074;2023-04-24T11:58:51;4.43;;;3.35;;
52035;SDS011;38046;49.448;32.074;2023-04-24T12:01:18;4.50;;;3.67;;
52035;SDS011;38046;49.448;32.074;2023-04-24T12:03:47;4.50;;;3.50;;
52035;SDS011;38046;49.448;32.074;2023-04-24T12:06:14;4.78;;;3.50;;
52035;SDS011;38046;49.448;32.074;2023-04-24T12:08:39;4.05;;;3.40;;
52035;SDS011;38046;49.448;32.074;2023-04-24T12:11:05;4.78;;;3.70;;
52035;SDS011;38046;49.448;32.074;2023-04-24T12:13:32;5.38;;;3.70;;
52035;SDS011;38046;49.448;32.074;2023-04-24T12:15:59;5.20;;;3.70;;
52035;SDS011;38046;49.448;32.074;2023-04-24T12:18:26;4.10;;;3.30;;
52035;SDS011;38046;49.448;32.074;2023-04-24T12:20:52;4.18;;;3.33;;
52035;SDS011;38046;49.448;32.074;2023-04-24T12:23:36;4.95;;;3.50;;
52035;SDS011;38046;49.448;32.074;2023-04-24T12:26:05;3.67;;;3.10;;
52035;SDS011;38046;49.448;32.074;2023-04-24T12:28:34;3.78;;;3.25;;
52035;SDS011;38046;49.448;32.074;2023-04-24T12:31:01;3.50;;;3.10;;
52035;SDS011;38046;49.448;32.074;2023-04-24T12:33:27;4.55;;;3.30;;
52035;SDS011;38046;49.448;32.074;2023-04-24T12:35:57;4.55;;;3.38;;
52035;SDS011;38046;49.448;32.074;2023-04-24T12:38:23;6.50;;;3.88;;
52035;SDS011;38046;49.448;32.074;2023-04-24T12:41:04;4.95;;;3.80;;
52035;SDS011;38046;49.448;32.074;2023-04-24T12:43:40;4.68;;;3.50;;
52035;SDS011;38046;49.448;32.074;2023-04-24T12:46:19;5.30;;;3.50;;
52035;SDS011;38046;49.448;32.074;2023-04-24T12:48:45;3.97;;;3.17;;
52035;SDS011;38046;49.448;32.074;2023-04-24T12:51:11;3.80;;;3.10;;
52035;SDS011;38046;49.448;32.074;2023-04-24T12:53:36;3.75;;;3.17;;
52035;SDS011;38046;49.448;32.074;2023-04-24T12:56:02;3.83;;;3.20;;
52035;SDS011;38046;49.448;32.074;2023-04-24T12:58:28;4.60;;;3.50;;
52035;SDS011;38046;49.448;32.074;2023-04-24T13:00:53;3.85;;;2.78;;
52035;SDS011;38046;49.448;32.074;2023-04-24T13:03:19;3.10;;;2.80;;
52035;SDS011;38046;49.448;32.074;2023-04-24T13:05:45;3.58;;;3.03;;
52035;SDS011;38046;49.448;32.074;2023-04-24T13:08:11;3.08;;;2.78;;
52035;SDS011;38046;49.448;32.074;2023-04-24T13:10:37;4.82;;;2.65;;
52035;SDS011;38046;49.448;32.074;2023-04-24T13:13:04;4.28;;;3.05;;
52035;SDS011;38046;49.448;32.074;2023-04-24T13:15:30;4.20;;;3.20;;
52035;SDS011;38046;49.448;32.074;2023-04-24T13:17:56;4.60;;;3.08;;
52035;SDS011;38046;49.448;32.074;2023-04-24T13:20:21;3.22;;;2.92;;
52035;SDS011;38046;49.448;32.074;2023-04-24T13:22:47;3.53;;;3.15;;
52035;SDS011;38046;49.448;32.074;2023-04-24T13:25:12;3.85;;;3.35;;
52035;SDS011;38046;49.448;32.074;2023-04-24T13:27:41;4.60;;;3.67;;
52035;SDS011;38046;49.448;32.074;2023-04-24T13:30:07;8.32;;;3.47;;
52035;SDS011;38046;49.448;32.074;2023-04-24T13:32:33;5.25;;;3.58;;
52035;SDS011;38046;49.448;32.074;2023-04-24T13:35:00;3.70;;;3.28;;
52035;SDS011;38046;49.448;32.074;2023-04-24T13:37:25;4.90;;;3.80;;
52035;SDS011;38046;49.448;32.074;2023-04-24T13:39:51;4.10;;;3.38;;
52035;SDS011;38046;49.448;32.074;2023-04-24T13:42:17;4.60;;;3.70;;
52035;SDS011;38046;49.448;32.074;2023-04-24T13:44:43;4.35;;;3.42;;
52035;SDS011;38046;49.448;32.074;2023-04-24T13:47:09;5.40;;;3.78;;
52035;SDS011;38046;49.448;32.074;2023-04-24T13:49:35;4.63;;;3.42;;
52035;SDS011;38046;49.448;32.074;2023-04-24T13:52:01;4.40;;;3.38;;
52035;SDS011;38046;49.448;32.074;2023-04-24T13:54:27;4.50;;;3.70;;
52035;SDS011;38046;49.448;32.074;2023-04-24T13:56:53;5.68;;;3.85;;
52035;SDS011;38046;49.448;32.074;2023-04-24T13:59:21;5.50;;;4.10;;
52035;SDS011;38046;49.448;32.074;2023-04-24T14:01:46;4.45;;;3.58;;
52035;SDS011;38046;49.448;32.074;2023-04-24T14:04:12;5.72;;;3.70;;
52035;SDS011;38046;49.448;32.074;2023-04-24T14:06:38;4.22;;;3.33;;
52035;SDS011;38046;49.448;32.074;2023-04-24T14:09:03;5.10;;;3.72;;
52035;SDS011;38046;49.448;32.074;2023-04-24T14:11:29;4.57;;;3.85;;
52035;SDS011;38046;49.448;32.074;2023-04-24T14:13:55;4.30;;;3.60;;
52035;SDS011;38046;49.448;32.074;2023-04-24T14:16:24;4.22;;;3.50;;
52035;SDS011;38046;49.448;32.074;2023-04-24T14:18:50;5.70;;;4.00;;
52035;SDS011;38046;49.448;32.074;2023-04-24T14:21:15;5.07;;;3.67;;
52035;SDS011;38046;49.448;32.074;2023-04-24T14:23:41;5.22;;;3.72;;
52035;SDS011;38046;49.448;32.074;2023-04-24T14:26:07;4.25;;;3.38;;
52035;SDS011;38046;49.448;32.074;2023-04-24T14:28:33;4.50;;;3.75;;
52035;SDS011;38046;49.448;32.074;2023-04-24T14:30:58;5.85;;;3.97;;
52035;SDS011;38046;49.448;32.074;2023-04-24T14:33:24;4.35;;;3.55;;
52035;SDS011;38046;49.448;32.074;2023-04-24T14:35:50;5.45;;;3.67;;
52035;SDS011;38046;49.448;32.074;2023-04-24T14:38:16;5.32;;;3.33;;
52035;SDS011;38046;49.448;32.074;2023-04-24T14:40:42;3.92;;;3.28;;
52035;SDS011;38046;49.448;32.074;2023-04-24T14:43:07;4.68;;;3.60;;
52035;SDS011;38046;49.448;32.074;2023-04-24T14:45:33;5.20;;;3.70;;